createdAt,value
2022-10-25T00:00:08.569Z,6.25
2022-10-25T00:01:30.466Z,4.93
2022-10-25T00:02:36.647Z,4.95
2022-10-25T00:03:38.810Z,7.78
2022-10-25T00:04:41.048Z,8.30
2022-10-25T00:05:43.203Z,6.43
2022-10-25T00:06:45.395Z,5.22
2022-10-25T00:07:47.632Z,7.50
2022-10-25T00:08:50.237Z,8.85
2022-10-25T00:09:52.339Z,4.78
2022-10-25T00:10:54.521Z,5.47
2022-10-25T00:11:56.617Z,5.57
2022-10-25T00:12:58.825Z,11.30
2022-10-25T00:14:04.101Z,6.60
2022-10-25T00:15:06.658Z,6.75
2022-10-25T00:16:14.914Z,3.40
2022-10-25T00:17:17.047Z,5.07
2022-10-25T00:18:19.188Z,6.28
2022-10-25T00:19:21.354Z,10.05
2022-10-25T00:20:23.532Z,6.80
2022-10-25T00:21:26.398Z,8.43
2022-10-25T00:22:29.199Z,4.47
2022-10-25T00:23:31.306Z,4.88
2022-10-25T00:24:33.485Z,9.25
2022-10-25T00:25:35.607Z,8.10
2022-10-25T00:26:40.389Z,7.07
2022-10-25T00:27:42.993Z,4.57
2022-10-25T00:28:45.382Z,8.55
2022-10-25T00:29:47.519Z,3.30
2022-10-25T00:30:59.776Z,7.57
2022-10-25T00:32:01.898Z,4.95
2022-10-25T00:33:04.124Z,7.65
2022-10-25T00:34:06.255Z,3.63
2022-10-25T00:35:08.939Z,8.70
2022-10-25T00:36:13.488Z,12.93
2022-10-25T00:37:15.770Z,11.15
2022-10-25T00:38:17.929Z,6.28
2022-10-25T00:39:20.025Z,7.78
2022-10-25T00:40:22.176Z,6.78
2022-10-25T00:41:27.762Z,7.07
2022-10-25T00:42:29.912Z,5.80
2022-10-25T00:43:49.934Z,6.82
2022-10-25T00:44:53.629Z,9.57
2022-10-25T00:45:56.500Z,10.93
2022-10-25T00:46:58.694Z,6.85
2022-10-25T00:48:04.934Z,6.00
2022-10-25T00:49:19.452Z,9.00
2022-10-25T00:50:49.058Z,11.98
2022-10-25T00:51:58.027Z,6.80
2022-10-25T00:53:08.763Z,6.68
2022-10-25T00:54:15.092Z,9.30
2022-10-25T00:55:20.456Z,10.20
2022-10-25T00:56:27.162Z,10.10
2022-10-25T00:57:37.810Z,5.97
2022-10-25T00:58:41.619Z,10.98
2022-10-25T00:59:46.322Z,12.23
2022-10-25T01:00:49.391Z,8.88
2022-10-25T01:01:54.782Z,6.20
2022-10-25T01:02:57.141Z,11.35
2022-10-25T01:04:04.684Z,10.52
2022-10-25T01:05:08.163Z,10.55
2022-10-25T01:06:34.723Z,8.50
2022-10-25T01:07:37.366Z,9.70
2022-10-25T01:08:42.993Z,12.65
2022-10-25T01:09:45.508Z,8.77
2022-10-25T01:10:48.307Z,9.63
2022-10-25T01:11:50.729Z,11.20
2022-10-25T01:12:53.663Z,9.60
2022-10-25T01:13:56.412Z,9.95
2022-10-25T01:14:58.593Z,10.02
2022-10-25T01:16:11.062Z,18.15
2022-10-25T01:17:55.614Z,10.57
2022-10-25T01:19:15.902Z,9.43
2022-10-25T01:20:39.147Z,9.48
2022-10-25T01:22:08.654Z,10.30
2022-10-25T01:23:48.658Z,12.55
2022-10-25T01:25:21.080Z,15.30
2022-10-25T01:27:01.360Z,10.13
2022-10-25T01:28:21.709Z,10.93
2022-10-25T01:29:43.327Z,11.52
2022-10-25T01:31:22.362Z,16.00
2022-10-25T01:32:30.771Z,10.32
2022-10-25T01:33:43.334Z,9.32
2022-10-25T01:35:03.143Z,8.77
2022-10-25T01:37:33.730Z,8.55
2022-10-25T01:39:11.086Z,10.65
2022-10-25T01:40:24.484Z,12.52
2022-10-25T01:41:38.327Z,8.02
2022-10-25T01:42:54.744Z,11.18
2022-10-25T01:44:22.904Z,16.42
2022-10-25T01:45:29.506Z,9.93
2022-10-25T01:46:51.854Z,15.65
2022-10-25T01:48:05.010Z,12.40
2022-10-25T01:49:14.548Z,14.75
2022-10-25T01:50:27.989Z,12.80
2022-10-25T01:51:30.130Z,10.02
2022-10-25T01:52:32.254Z,9.73
2022-10-25T01:53:42.956Z,9.68
2022-10-25T01:54:45.082Z,12.63
2022-10-25T01:55:51.031Z,10.10
2022-10-25T01:57:14.626Z,7.90
2022-10-25T01:59:00.338Z,14.65
2022-10-25T02:00:07.357Z,14.50
2022-10-25T02:01:55.694Z,10.32
2022-10-25T02:02:57.831Z,14.80
2022-10-25T02:04:11.018Z,13.00
2022-10-25T02:05:26.554Z,11.45
2022-10-25T02:06:47.252Z,7.85
2022-10-25T02:08:07.503Z,18.25
2022-10-25T02:09:33.502Z,13.23
2022-10-25T02:10:40.600Z,13.80
2022-10-25T02:11:42.857Z,11.52
2022-10-25T02:13:01.317Z,13.88
2022-10-25T02:14:38.632Z,10.05
2022-10-25T02:15:44.670Z,10.02
2022-10-25T02:16:57.091Z,11.13
2022-10-25T02:18:03.234Z,10.50
2022-10-25T02:19:08.819Z,12.70
2022-10-25T02:20:15.621Z,14.82
2022-10-25T02:21:18.704Z,11.48
2022-10-25T02:22:25.601Z,12.02
2022-10-25T02:23:29.527Z,18.05
2022-10-25T02:24:32.329Z,13.85
2022-10-25T02:25:37.198Z,15.13
2022-10-25T02:26:41.028Z,10.70
2022-10-25T02:27:45.466Z,15.80
2022-10-25T02:28:48.293Z,16.80
2022-10-25T02:29:53.508Z,11.23
2022-10-25T02:31:40.482Z,10.85
2022-10-25T02:32:48.083Z,11.43
2022-10-25T02:33:50.341Z,13.05
2022-10-25T02:34:52.500Z,14.68
2022-10-25T02:36:15.401Z,11.85
2022-10-25T02:37:18.081Z,11.38
2022-10-25T02:38:20.228Z,11.35
2022-10-25T02:39:27.699Z,11.98
2022-10-25T02:40:32.712Z,9.50
2022-10-25T02:41:34.934Z,15.48
2022-10-25T02:42:37.168Z,13.40
2022-10-25T02:43:39.255Z,13.07
2022-10-25T02:44:41.401Z,11.75
2022-10-25T02:45:43.958Z,9.32
2022-10-25T02:46:46.114Z,15.27
2022-10-25T02:47:48.509Z,14.05
2022-10-25T02:48:51.354Z,10.10
2022-10-25T02:49:53.515Z,14.27
2022-10-25T02:50:55.655Z,11.45
2022-10-25T02:51:57.799Z,8.50
2022-10-25T02:52:59.912Z,14.27
2022-10-25T02:54:02.523Z,10.35
2022-10-25T02:55:05.028Z,13.13
2022-10-25T02:56:15.272Z,11.52
2022-10-25T02:57:17.374Z,11.75
2022-10-25T02:58:19.457Z,15.38
2022-10-25T02:59:21.671Z,9.05
2022-10-25T03:00:23.949Z,9.45
2022-10-25T03:01:26.652Z,14.23
2022-10-25T03:02:28.851Z,12.77
2022-10-25T03:03:31.071Z,12.77
2022-10-25T03:04:33.210Z,12.60
2022-10-25T03:05:35.298Z,16.75
2022-10-25T03:06:37.692Z,14.23
2022-10-25T03:07:39.859Z,17.90
2022-10-25T03:08:43.329Z,12.00
2022-10-25T03:09:45.479Z,12.27
2022-10-25T03:10:48.653Z,13.15
2022-10-25T03:11:50.865Z,18.15
2022-10-25T03:12:53.015Z,11.60
2022-10-25T03:13:55.240Z,14.63
2022-10-25T03:14:57.345Z,18.23
2022-10-25T03:15:59.803Z,15.02
2022-10-25T03:17:02.003Z,11.20
2022-10-25T03:18:04.242Z,11.57
2022-10-25T03:19:06.528Z,15.05
2022-10-25T03:20:09.231Z,16.17
2022-10-25T03:21:11.474Z,16.92
2022-10-25T03:22:13.626Z,13.50
2022-10-25T03:23:15.963Z,13.48
2022-10-25T03:24:18.075Z,11.57
2022-10-25T03:25:20.291Z,10.90
2022-10-25T03:26:22.551Z,14.23
2022-10-25T03:27:24.651Z,11.70
2022-10-25T03:28:28.226Z,12.68
2022-10-25T03:29:30.366Z,14.50
2022-10-25T03:30:33.160Z,12.05
2022-10-25T03:31:35.262Z,13.38
2022-10-25T03:32:37.530Z,12.15
2022-10-25T03:33:40.302Z,14.02
2022-10-25T03:34:42.415Z,14.20
2022-10-25T03:35:44.684Z,13.07
2022-10-25T03:36:46.800Z,15.57
2022-10-25T03:37:50.004Z,13.13
2022-10-25T03:38:52.207Z,10.75
2022-10-25T03:39:54.311Z,11.60
2022-10-25T03:40:56.456Z,16.77
2022-10-25T03:41:58.589Z,16.42
2022-10-25T03:43:00.707Z,24.50
2022-10-25T03:44:02.863Z,16.98
2022-10-25T03:45:05.817Z,10.32
2022-10-25T03:46:07.936Z,15.15
2022-10-25T03:47:10.053Z,12.85
2022-10-25T03:48:12.577Z,17.10
2022-10-25T03:49:14.688Z,14.68
2022-10-25T03:50:17.296Z,13.52
2022-10-25T03:51:19.406Z,13.70
2022-10-25T03:52:21.504Z,16.00
2022-10-25T03:53:23.707Z,12.43
2022-10-25T03:54:29.105Z,11.82
2022-10-25T03:55:32.387Z,13.68
2022-10-25T03:56:34.491Z,14.38
2022-10-25T03:57:36.776Z,13.07
2022-10-25T03:58:38.884Z,12.60
2022-10-25T03:59:41.010Z,15.25
2022-10-25T04:00:43.261Z,11.57
2022-10-25T04:01:45.549Z,12.13
2022-10-25T04:02:47.777Z,13.02
2022-10-25T04:03:49.925Z,14.23
2022-10-25T04:04:52.644Z,14.57
2022-10-25T04:05:54.768Z,11.75
2022-10-25T04:06:56.851Z,16.73
2022-10-25T04:07:59.218Z,13.90
2022-10-25T04:09:01.359Z,13.30
2022-10-25T04:10:04.671Z,12.25
2022-10-25T04:11:06.819Z,10.07
2022-10-25T04:12:08.953Z,12.93
2022-10-25T04:13:11.095Z,15.25
2022-10-25T04:14:13.620Z,12.10
2022-10-25T04:15:16.035Z,12.48
2022-10-25T04:16:19.119Z,14.23
2022-10-25T04:17:21.510Z,10.85
2022-10-25T04:18:23.687Z,11.13
2022-10-25T04:19:25.803Z,14.38
2022-10-25T04:20:28.144Z,11.23
2022-10-25T04:21:30.296Z,10.85
2022-10-25T04:22:33.235Z,14.50
2022-10-25T04:23:35.587Z,14.30
2022-10-25T04:24:37.732Z,13.57
2022-10-25T04:25:39.879Z,13.60
2022-10-25T04:26:42.157Z,10.05
2022-10-25T04:27:44.496Z,11.70
2022-10-25T04:28:52.403Z,10.27
2022-10-25T04:29:54.495Z,12.48
2022-10-25T04:30:56.627Z,14.55
2022-10-25T04:31:58.722Z,10.18
2022-10-25T04:33:00.980Z,11.25
2022-10-25T04:34:03.392Z,12.85
2022-10-25T04:35:05.961Z,14.77
2022-10-25T04:36:08.287Z,8.90
2022-10-25T04:37:10.353Z,12.35
2022-10-25T04:38:12.560Z,13.20
2022-10-25T04:39:15.294Z,15.30
2022-10-25T04:40:22.491Z,14.68
2022-10-25T04:41:27.086Z,13.63
2022-10-25T04:42:29.211Z,12.52
2022-10-25T04:43:31.365Z,12.70
2022-10-25T04:44:33.521Z,12.20
2022-10-25T04:45:35.631Z,11.52
2022-10-25T04:46:37.773Z,12.20
2022-10-25T04:47:39.884Z,16.17
2022-10-25T04:48:43.065Z,10.10
2022-10-25T04:49:45.187Z,10.90
2022-10-25T04:50:48.034Z,10.32
2022-10-25T04:52:57.147Z,10.27
2022-10-25T04:53:59.278Z,10.32
2022-10-25T04:55:01.406Z,15.07
2022-10-25T04:56:06.204Z,15.70
2022-10-25T04:57:08.364Z,11.75
2022-10-25T04:58:10.838Z,9.75
2022-10-25T04:59:13.102Z,14.48
2022-10-25T05:00:15.287Z,18.60
2022-10-25T05:01:18.770Z,12.95
2022-10-25T05:02:20.960Z,12.48
2022-10-25T05:03:23.156Z,17.92
2022-10-25T05:04:25.311Z,10.25
2022-10-25T05:05:27.800Z,14.57
2022-10-25T05:06:29.962Z,11.38
2022-10-25T05:07:32.049Z,19.05
2022-10-25T05:08:34.454Z,12.55
2022-10-25T05:09:36.552Z,14.93
2022-10-25T05:10:38.705Z,15.50
2022-10-25T05:11:40.997Z,14.40
2022-10-25T05:12:43.172Z,12.52
2022-10-25T05:13:45.517Z,12.10
2022-10-25T05:14:47.695Z,11.82
2022-10-25T05:15:56.627Z,10.60
2022-10-25T05:16:59.042Z,10.50
2022-10-25T05:18:01.706Z,12.30
2022-10-25T05:19:03.862Z,11.70
2022-10-25T05:20:06.759Z,12.63
2022-10-25T05:21:09.731Z,16.85
2022-10-25T05:22:11.830Z,14.23
2022-10-25T05:23:13.959Z,12.40
2022-10-25T05:24:16.133Z,9.75
2022-10-25T05:25:18.261Z,11.85
2022-10-25T05:26:21.693Z,10.82
2022-10-25T05:27:23.818Z,11.27
2022-10-25T05:28:26.001Z,11.02
2022-10-25T05:29:28.263Z,15.77
2022-10-25T05:30:30.405Z,13.57
2022-10-25T05:31:32.601Z,13.70
2022-10-25T05:32:34.795Z,11.05
2022-10-25T05:33:36.925Z,9.07
2022-10-25T05:34:39.029Z,10.25
2022-10-25T05:35:41.121Z,16.98
2022-10-25T05:36:43.285Z,16.10
2022-10-25T05:37:45.493Z,10.38
2022-10-25T05:38:47.771Z,13.13
2022-10-25T05:39:49.877Z,11.13
2022-10-25T05:40:53.749Z,19.48
2022-10-25T05:41:56.103Z,10.70
2022-10-25T05:42:58.305Z,14.35
2022-10-25T05:44:00.409Z,8.55
2022-10-25T05:45:02.572Z,11.50
2022-10-25T05:46:14.838Z,12.95
2022-10-25T05:47:16.946Z,15.55
2022-10-25T05:48:19.261Z,9.68
2022-10-25T05:49:21.378Z,9.95
2022-10-25T05:50:23.478Z,12.40
2022-10-25T05:51:34.217Z,13.45
2022-10-25T05:52:42.260Z,14.88
2022-10-25T05:53:51.563Z,17.08
2022-10-25T05:54:53.702Z,10.05
2022-10-25T05:55:59.943Z,13.10
2022-10-25T05:57:02.055Z,10.75
2022-10-25T05:58:04.215Z,8.77
2022-10-25T05:59:09.573Z,16.30
2022-10-25T06:00:12.579Z,12.45
2022-10-25T06:01:20.172Z,10.75
2022-10-25T06:02:22.473Z,13.10
2022-10-25T06:03:24.720Z,15.70
2022-10-25T06:04:26.923Z,16.83
2022-10-25T06:05:29.335Z,10.05
2022-10-25T06:06:31.483Z,11.82
2022-10-25T06:07:33.646Z,11.93
2022-10-25T06:08:36.719Z,15.75
2022-10-25T06:09:38.945Z,7.20
2022-10-25T06:10:41.100Z,12.73
2022-10-25T06:11:43.358Z,9.98
2022-10-25T06:12:45.778Z,9.98
2022-10-25T06:13:48.083Z,10.70
2022-10-25T06:14:50.255Z,7.93
2022-10-25T06:15:52.359Z,9.90
2022-10-25T06:16:54.439Z,9.43
2022-10-25T06:17:56.705Z,8.57
2022-10-25T06:19:00.526Z,9.10
2022-10-25T06:20:03.625Z,9.48
2022-10-25T06:21:11.196Z,14.68
2022-10-25T06:22:13.540Z,12.73
2022-10-25T06:23:16.143Z,10.05
2022-10-25T06:24:18.765Z,14.00
2022-10-25T06:25:20.922Z,6.93
2022-10-25T06:26:25.516Z,11.98
2022-10-25T06:27:28.126Z,9.85
2022-10-25T06:28:31.044Z,11.63
2022-10-25T06:29:33.574Z,9.98
2022-10-25T06:30:35.731Z,11.65
2022-10-25T06:31:37.909Z,7.32
2022-10-25T06:32:40.036Z,9.07
2022-10-25T06:33:42.822Z,12.23
2022-10-25T06:34:45.011Z,14.27
2022-10-25T06:35:47.108Z,6.53
2022-10-25T06:36:49.241Z,9.65
2022-10-25T06:37:51.352Z,11.13
2022-10-25T06:38:54.302Z,8.80
2022-10-25T06:39:56.430Z,12.25
2022-10-25T06:41:06.528Z,10.25
2022-10-25T06:42:08.709Z,9.68
2022-10-25T06:43:10.832Z,9.65
2022-10-25T06:44:12.950Z,11.55
2022-10-25T06:45:15.175Z,13.55
2022-10-25T06:46:23.147Z,12.13
2022-10-25T06:47:25.282Z,10.32
2022-10-25T06:48:27.393Z,6.63
2022-10-25T06:49:29.551Z,13.05
2022-10-25T06:50:31.657Z,12.98
2022-10-25T06:51:34.426Z,12.70
2022-10-25T06:52:36.537Z,8.68
2022-10-25T06:53:38.987Z,13.15
2022-10-25T06:54:41.145Z,11.57
2022-10-25T06:55:44.958Z,10.55
2022-10-25T06:56:48.173Z,16.95
2022-10-25T06:57:50.308Z,12.82
2022-10-25T06:58:53.098Z,13.57
2022-10-25T06:59:55.295Z,13.55
2022-10-25T07:01:10.228Z,12.40
2022-10-25T07:02:12.532Z,12.55
2022-10-25T07:03:14.902Z,12.40
2022-10-25T07:04:17.064Z,10.73
2022-10-25T07:05:19.207Z,7.85
2022-10-25T07:06:27.455Z,10.15
2022-10-25T07:07:29.685Z,9.38
2022-10-25T07:08:36.439Z,8.35
2022-10-25T07:09:38.892Z,11.13
2022-10-25T07:10:41.057Z,10.35
2022-10-25T07:11:43.190Z,8.55
2022-10-25T07:12:45.663Z,8.10
2022-10-25T07:13:47.762Z,11.98
2022-10-25T07:14:49.867Z,9.65
2022-10-25T07:15:52.081Z,11.15
2022-10-25T07:16:54.325Z,11.73
2022-10-25T07:17:56.421Z,19.42
2022-10-25T07:19:00.169Z,14.10
2022-10-25T07:20:02.820Z,13.25
2022-10-25T07:21:12.261Z,14.65
2022-10-25T07:22:14.380Z,10.20
2022-10-25T07:23:16.607Z,11.82
2022-10-25T07:24:18.745Z,15.27
2022-10-25T07:25:20.845Z,14.60
2022-10-25T07:26:26.292Z,11.65
2022-10-25T07:27:31.982Z,13.38
2022-10-25T07:28:34.136Z,16.13
2022-10-25T07:29:36.383Z,13.43
2022-10-25T07:30:44.180Z,13.85
2022-10-25T07:31:46.308Z,9.98
2022-10-25T07:32:48.541Z,9.93
2022-10-25T07:33:52.343Z,11.73
2022-10-25T07:34:54.529Z,12.82
2022-10-25T07:36:09.563Z,12.55
2022-10-25T07:37:12.738Z,10.30
2022-10-25T07:38:15.339Z,16.95
2022-10-25T07:39:17.443Z,10.15
2022-10-25T07:40:19.545Z,19.35
2022-10-25T07:41:21.719Z,10.15
2022-10-25T07:42:23.909Z,11.35
2022-10-25T07:43:27.312Z,9.88
2022-10-25T07:44:29.437Z,9.73
2022-10-25T07:45:31.563Z,17.63
2022-10-25T07:46:33.776Z,12.05
2022-10-25T07:47:35.877Z,8.73
2022-10-25T07:48:38.068Z,11.60
2022-10-25T07:49:40.171Z,13.70
2022-10-25T07:50:42.354Z,11.18
2022-10-25T07:51:44.537Z,16.08
2022-10-25T07:52:46.899Z,12.35
2022-10-25T07:53:49.901Z,11.05
2022-10-25T07:54:52.077Z,11.93
2022-10-25T07:55:57.288Z,12.07
2022-10-25T07:56:59.469Z,13.55
2022-10-25T07:58:04.635Z,10.98
2022-10-25T07:59:06.762Z,8.40
2022-10-25T08:00:10.399Z,7.93
2022-10-25T08:01:17.853Z,9.68
2022-10-25T08:02:25.427Z,8.95
2022-10-25T08:03:28.396Z,12.73
2022-10-25T08:04:32.973Z,8.07
2022-10-25T08:05:35.354Z,14.23
2022-10-25T08:06:37.499Z,11.80
2022-10-25T08:07:39.603Z,7.20
2022-10-25T08:08:41.952Z,9.98
2022-10-25T08:09:44.087Z,6.68
2022-10-25T08:10:46.370Z,10.27
2022-10-25T08:11:48.515Z,14.85
2022-10-25T08:12:51.055Z,13.32
2022-10-25T08:13:53.214Z,10.60
2022-10-25T08:14:55.338Z,9.10
2022-10-25T08:15:57.544Z,10.07
2022-10-25T08:16:59.672Z,15.20
2022-10-25T08:18:02.864Z,15.10
2022-10-25T08:19:04.993Z,10.02
2022-10-25T08:20:07.434Z,12.13
2022-10-25T08:21:09.553Z,11.25
2022-10-25T08:22:11.705Z,8.85
2022-10-25T08:23:14.677Z,10.77
2022-10-25T08:24:16.844Z,9.90
2022-10-25T08:25:19.957Z,8.65
2022-10-25T08:26:26.293Z,10.55
2022-10-25T08:27:28.406Z,10.55
2022-10-25T08:28:31.424Z,13.55
2022-10-25T08:29:33.784Z,11.88
2022-10-25T08:30:35.980Z,15.10
2022-10-25T08:31:38.150Z,10.98
2022-10-25T08:32:40.320Z,7.68
2022-10-25T08:33:42.443Z,5.53
2022-10-25T08:34:44.723Z,9.57
2022-10-25T08:35:46.876Z,11.80
2022-10-25T08:36:49.729Z,11.68
2022-10-25T08:37:51.918Z,7.78
2022-10-25T08:38:54.123Z,9.88
2022-10-25T08:39:56.224Z,13.90
2022-10-25T08:41:01.565Z,13.40
2022-10-25T08:42:04.027Z,13.85
2022-10-25T08:43:21.295Z,8.10
2022-10-25T08:44:32.556Z,13.52
2022-10-25T08:46:04.794Z,8.18
2022-10-25T08:47:33.968Z,11.48
2022-10-25T08:48:44.810Z,6.32
2022-10-25T08:49:55.669Z,6.95
2022-10-25T08:51:26.082Z,5.15
2022-10-25T08:52:42.147Z,6.05
2022-10-25T08:53:50.152Z,6.65
2022-10-25T08:54:53.094Z,5.97
2022-10-25T08:56:15.735Z,10.88
2022-10-25T08:57:25.918Z,6.05
2022-10-25T08:58:38.039Z,10.57
2022-10-25T08:59:43.009Z,12.65
2022-10-25T09:00:47.803Z,8.15
2022-10-25T09:01:55.330Z,4.30
2022-10-25T09:02:59.897Z,10.48
2022-10-25T09:04:02.170Z,6.97
2022-10-25T09:05:09.785Z,9.60
2022-10-25T09:06:26.361Z,7.13
2022-10-25T09:08:00.861Z,8.50
2022-10-25T09:09:26.906Z,9.57
2022-10-25T09:10:48.852Z,9.30
2022-10-25T09:12:03.191Z,6.25
2022-10-25T09:13:27.712Z,10.45
2022-10-25T09:15:01.574Z,5.93
2022-10-25T09:16:17.428Z,7.13
2022-10-25T09:17:43.824Z,5.18
2022-10-25T09:18:50.233Z,8.05
2022-10-25T09:20:16.813Z,8.00
2022-10-25T09:21:29.825Z,9.88
2022-10-25T09:22:46.568Z,5.13
2022-10-25T09:24:39.172Z,8.35
2022-10-25T09:26:02.951Z,4.60
2022-10-25T09:27:15.176Z,8.18
2022-10-25T09:28:24.546Z,9.32
2022-10-25T09:29:40.263Z,8.07
2022-10-25T09:30:44.383Z,8.75
2022-10-25T09:31:51.811Z,7.47
2022-10-25T09:33:01.377Z,6.68
2022-10-25T09:34:07.671Z,9.75
2022-10-25T09:35:17.629Z,5.35
2022-10-25T09:36:20.003Z,7.22
2022-10-25T09:37:30.043Z,6.35
2022-10-25T09:38:56.744Z,8.10
2022-10-25T09:40:28.141Z,9.70
2022-10-25T09:41:44.301Z,5.93
2022-10-25T09:43:14.516Z,12.07
2022-10-25T09:44:32.054Z,2.72
2022-10-25T09:45:48.285Z,11.85
2022-10-25T09:47:03.263Z,5.25
2022-10-25T09:48:29.903Z,9.65
2022-10-25T09:50:09.519Z,5.25
2022-10-25T09:51:18.140Z,8.13
2022-10-25T09:52:34.800Z,5.95
2022-10-25T09:53:40.681Z,7.97
2022-10-25T09:54:53.176Z,11.07
2022-10-25T09:56:00.230Z,9.55
2022-10-25T09:57:02.422Z,9.90
2022-10-25T09:58:04.584Z,9.90
2022-10-25T09:59:08.360Z,7.43
2022-10-25T10:00:14.742Z,9.63
2022-10-25T10:01:19.232Z,6.95
2022-10-25T10:02:26.871Z,5.65
2022-10-25T10:03:31.972Z,6.82
2022-10-25T10:04:38.637Z,7.05
2022-10-25T10:05:56.663Z,12.00
2022-10-25T10:07:04.494Z,8.07
2022-10-25T10:08:08.841Z,11.57
2022-10-25T10:09:14.442Z,4.88
2022-10-25T10:10:20.822Z,6.97
2022-10-25T10:11:24.446Z,10.75
2022-10-25T10:12:41.082Z,5.82
2022-10-25T10:13:49.741Z,7.68
2022-10-25T10:15:00.771Z,8.25
2022-10-25T10:16:20.137Z,8.77
2022-10-25T10:17:24.334Z,6.28
2022-10-25T10:18:30.102Z,6.25
2022-10-25T10:19:32.286Z,8.07
2022-10-25T10:20:34.651Z,7.15
2022-10-25T10:21:37.846Z,8.30
2022-10-25T10:22:54.240Z,8.75
2022-10-25T10:24:05.360Z,5.95
2022-10-25T10:25:16.286Z,9.63
2022-10-25T10:26:45.116Z,7.68
2022-10-25T10:27:48.941Z,9.88
2022-10-25T10:29:07.907Z,7.57
2022-10-25T10:30:23.881Z,12.90
2022-10-25T10:31:35.099Z,5.57
2022-10-25T10:33:52.035Z,5.03
2022-10-25T10:34:57.661Z,4.97
2022-10-25T10:36:24.370Z,7.50
2022-10-25T10:37:28.609Z,9.52
2022-10-25T10:38:30.789Z,6.78
2022-10-25T10:39:33.797Z,5.80
2022-10-25T10:40:35.906Z,10.27
2022-10-25T10:42:05.630Z,9.23
2022-10-25T10:43:31.125Z,9.48
2022-10-25T10:44:34.696Z,5.97
2022-10-25T10:45:37.160Z,3.63
2022-10-25T10:46:45.833Z,6.47
2022-10-25T10:47:50.921Z,9.00
2022-10-25T10:48:56.004Z,9.68
2022-10-25T10:49:58.537Z,8.18
2022-10-25T10:51:01.054Z,11.90
2022-10-25T10:52:04.987Z,5.68
2022-10-25T10:53:21.510Z,11.50
2022-10-25T10:54:30.279Z,5.18
2022-10-25T10:55:36.794Z,6.20
2022-10-25T10:56:39.691Z,8.07
2022-10-25T10:57:44.806Z,8.05
2022-10-25T10:58:53.482Z,13.25
2022-10-25T10:59:57.007Z,8.23
2022-10-25T11:01:02.392Z,8.93
2022-10-25T11:02:19.328Z,4.35
2022-10-25T11:03:45.159Z,6.68
2022-10-25T11:04:56.498Z,5.45
2022-10-25T11:06:00.264Z,10.32
2022-10-25T11:07:34.468Z,6.72
2022-10-25T11:08:36.833Z,3.72
2022-10-25T11:09:38.959Z,5.18
2022-10-25T11:10:41.095Z,9.68
2022-10-25T11:11:44.813Z,9.40
2022-10-25T11:13:05.355Z,7.55
2022-10-25T11:14:19.721Z,7.32
2022-10-25T11:15:21.965Z,9.43
2022-10-25T11:16:30.143Z,6.38
2022-10-25T11:17:36.908Z,5.60
2022-10-25T11:19:11.211Z,2.78
2022-10-25T11:20:19.277Z,9.13
2022-10-25T11:21:33.572Z,6.13
2022-10-25T11:23:05.335Z,5.82
2022-10-25T11:24:07.789Z,5.85
2022-10-25T11:25:21.421Z,5.80
2022-10-25T11:26:44.504Z,10.07
2022-10-25T11:27:53.324Z,7.10
2022-10-25T11:29:12.255Z,5.53
2022-10-25T11:30:18.984Z,6.07
2022-10-25T11:31:24.655Z,4.97
2022-10-25T11:32:40.011Z,6.53
2022-10-25T11:33:56.522Z,6.07
2022-10-25T11:35:24.723Z,5.50
2022-10-25T11:36:26.787Z,7.13
2022-10-25T11:37:40.356Z,6.82
2022-10-25T11:38:48.313Z,6.40
2022-10-25T11:40:03.839Z,11.20
2022-10-25T11:41:44.642Z,9.32
2022-10-25T11:43:01.297Z,4.38
2022-10-25T11:44:18.365Z,10.43
2022-10-25T11:45:39.436Z,8.68
2022-10-25T11:46:41.495Z,3.33
2022-10-25T11:48:11.517Z,7.82
2022-10-25T11:49:25.756Z,5.35
2022-10-25T11:50:49.683Z,6.93
2022-10-25T11:51:54.780Z,9.70
2022-10-25T11:53:18.515Z,5.40
2022-10-25T11:54:43.664Z,4.90
2022-10-25T11:55:52.015Z,7.47
2022-10-25T11:56:54.139Z,5.30
2022-10-25T11:58:22.526Z,5.82
2022-10-25T11:59:54.341Z,6.13
2022-10-25T12:01:24.742Z,5.50
2022-10-25T12:02:46.795Z,3.40
2022-10-25T12:04:04.502Z,3.40
2022-10-25T12:05:25.216Z,6.65
2022-10-25T12:06:42.500Z,4.90
2022-10-25T12:07:48.680Z,3.28
2022-10-25T12:08:59.510Z,5.80
2022-10-25T12:10:16.478Z,3.65
2022-10-25T12:11:25.202Z,5.38
2022-10-25T12:12:40.975Z,3.45
2022-10-25T12:13:47.606Z,8.00
2022-10-25T12:14:54.485Z,5.03
2022-10-25T12:15:58.729Z,4.63
2022-10-25T12:17:02.956Z,3.35
2022-10-25T12:18:07.996Z,3.88
2022-10-25T12:19:23.049Z,6.28
2022-10-25T12:20:28.940Z,6.43
2022-10-25T12:21:40.904Z,4.55
2022-10-25T12:22:48.787Z,6.90
2022-10-25T12:23:54.385Z,4.25
2022-10-25T12:25:02.603Z,3.75
2022-10-25T12:26:33.567Z,5.13
2022-10-25T12:27:36.407Z,5.80
2022-10-25T12:28:47.388Z,5.88
2022-10-25T12:30:02.370Z,6.68
2022-10-25T12:31:20.448Z,3.28
2022-10-25T12:32:38.124Z,8.70
2022-10-25T12:33:46.239Z,6.45
2022-10-25T12:34:52.047Z,1.77
2022-10-25T12:36:02.350Z,6.43
2022-10-25T12:37:14.818Z,3.97
2022-10-25T12:38:33.183Z,4.72
2022-10-25T12:39:43.417Z,6.20
2022-10-25T12:40:49.698Z,4.60
2022-10-25T12:41:58.650Z,5.00
2022-10-25T12:43:19.820Z,5.22
2022-10-25T12:44:40.034Z,5.60
2022-10-25T12:45:59.949Z,4.75
2022-10-25T12:47:23.558Z,5.22
2022-10-25T12:49:33.255Z,4.50
2022-10-25T12:50:48.841Z,3.75
2022-10-25T12:52:09.479Z,3.03
2022-10-25T12:53:26.729Z,4.68
2022-10-25T12:54:34.704Z,2.47
2022-10-25T12:56:15.171Z,2.60
2022-10-25T12:57:35.247Z,6.10
2022-10-25T12:59:09.916Z,3.67
2022-10-25T13:00:15.583Z,5.63
2022-10-25T13:01:38.674Z,4.68
2022-10-25T13:02:49.679Z,4.10
2022-10-25T13:04:17.801Z,5.43
2022-10-25T13:05:49.219Z,5.28
2022-10-25T13:06:52.784Z,2.65
2022-10-25T13:07:58.596Z,4.72
2022-10-25T13:09:09.207Z,6.05
2022-10-25T13:10:21.356Z,4.13
2022-10-25T13:11:33.063Z,6.75
2022-10-25T13:12:35.278Z,9.00
2022-10-25T13:13:49.124Z,5.63
2022-10-25T13:14:54.451Z,3.95
2022-10-25T13:15:59.544Z,5.07
2022-10-25T13:17:16.985Z,2.45
2022-10-25T13:18:27.745Z,6.53
2022-10-25T13:19:49.812Z,7.25
2022-10-25T13:20:53.561Z,4.40
2022-10-25T13:21:55.678Z,2.78
2022-10-25T13:22:57.801Z,2.63
2022-10-25T13:24:02.685Z,6.68
2022-10-25T13:25:12.251Z,2.80
2022-10-25T13:26:25.788Z,5.95
2022-10-25T13:27:33.102Z,3.22
2022-10-25T13:28:45.714Z,4.57
2022-10-25T13:30:13.115Z,7.68
2022-10-25T13:31:38.622Z,5.15
2022-10-25T13:32:42.484Z,5.20
2022-10-25T13:34:04.530Z,2.08
2022-10-25T13:35:26.937Z,3.97
2022-10-25T13:36:55.315Z,3.15
2022-10-25T13:38:08.439Z,5.85
2022-10-25T13:39:16.600Z,2.53
2022-10-25T13:40:24.828Z,4.57
2022-10-25T13:41:26.989Z,2.08
2022-10-25T13:42:33.489Z,5.72
2022-10-25T13:43:51.401Z,1.38
2022-10-25T13:45:06.005Z,6.20
2022-10-25T13:46:11.169Z,3.13
2022-10-25T13:47:31.382Z,9.07
2022-10-25T13:48:35.771Z,6.13
2022-10-25T13:49:43.515Z,3.42
2022-10-25T13:51:13.763Z,4.50
2022-10-25T13:52:33.615Z,1.98
2022-10-25T13:53:46.250Z,3.10
2022-10-25T13:54:50.459Z,5.05
2022-10-25T13:56:04.514Z,3.60
2022-10-25T13:57:45.087Z,6.75
2022-10-25T13:58:48.772Z,6.18
2022-10-25T13:59:50.841Z,4.30
2022-10-25T14:00:54.561Z,4.60
2022-10-25T14:02:14.889Z,5.18
2022-10-25T14:03:17.200Z,6.07
2022-10-25T14:04:34.124Z,3.25
2022-10-25T14:05:54.718Z,3.30
2022-10-25T14:07:35.013Z,8.80
2022-10-25T14:08:57.908Z,11.53
2022-10-25T14:10:00.845Z,3.72
2022-10-25T14:11:11.682Z,9.18
2022-10-25T14:13:32.222Z,2.35
2022-10-25T14:14:57.391Z,7.95
2022-10-25T14:17:36.719Z,5.78
2022-10-25T14:18:40.630Z,4.28
2022-10-25T14:19:47.386Z,7.95
2022-10-25T14:20:54.547Z,6.45
2022-10-25T14:21:57.206Z,3.85
2022-10-25T14:23:02.759Z,4.65
2022-10-25T14:24:12.496Z,5.07
2022-10-25T14:25:17.669Z,3.20
2022-10-25T14:26:21.317Z,2.08
2022-10-25T14:27:36.065Z,5.18
2022-10-25T14:28:38.932Z,6.68
2022-10-25T14:29:41.058Z,3.78
2022-10-25T14:30:46.830Z,3.88
2022-10-25T14:31:49.719Z,5.72
2022-10-25T14:32:56.602Z,5.85
2022-10-25T14:34:00.038Z,4.63
2022-10-25T14:35:02.307Z,4.50
2022-10-25T14:36:23.683Z,3.53
2022-10-25T14:37:25.815Z,2.78
2022-10-25T14:38:28.204Z,2.95
2022-10-25T14:39:31.030Z,4.65
2022-10-25T14:40:33.264Z,5.13
2022-10-25T14:41:35.958Z,2.45
2022-10-25T14:42:38.175Z,4.60
2022-10-25T14:43:42.258Z,6.13
2022-10-25T14:44:48.228Z,9.10
2022-10-25T14:46:12.819Z,2.40
2022-10-25T14:47:34.296Z,2.35
2022-10-25T14:48:36.666Z,2.70
2022-10-25T14:49:38.853Z,2.83
2022-10-25T14:50:41.085Z,5.53
2022-10-25T14:51:44.560Z,5.18
2022-10-25T14:52:49.413Z,3.95
2022-10-25T14:54:05.739Z,4.65
2022-10-25T14:55:08.038Z,4.10
2022-10-25T14:56:10.199Z,3.55